sensor_id;sensor_type;location;lat;lon;timestamp;P1;durP1;ratioP1;P2;durP2;ratioP2
20531;SDS011;10424;52.102;8.084;2023-04-01T00:01:46;6.63;;;4.18;;
20531;SDS011;10424;52.102;8.084;2023-04-01T00:04:13;9.10;;;4.30;;
20531;SDS011;10424;52.102;8.084;2023-04-01T00:06:40;9.50;;;4.25;;
20531;SDS011;10424;52.102;8.084;2023-04-01T00:09:08;8.10;;;3.95;;
20531;SDS011;10424;52.102;8.084;2023-04-01T00:11:36;9.40;;;4.18;;
20531;SDS011;10424;52.102;8.084;2023-04-01T00:14:04;7.20;;;4.10;;
20531;SDS011;10424;52.102;8.084;2023-04-01T00:16:31;10.85;;;4.97;;
20531;SDS011;10424;52.102;8.084;2023-04-01T00:18:58;8.63;;;4.45;;
20531;SDS011;10424;52.102;8.084;2023-04-01T00:21:26;8.40;;;4.32;;
20531;SDS011;10424;52.102;8.084;2023-04-01T00:23:53;8.65;;;4.10;;
20531;SDS011;10424;52.102;8.084;2023-04-01T00:26:21;6.57;;;4.18;;
20531;SDS011;10424;52.102;8.084;2023-04-01T00:28:49;7.30;;;3.95;;
20531;SDS011;10424;52.102;8.084;2023-04-01T00:31:17;9.35;;;4.25;;
20531;SDS011;10424;52.102;8.084;2023-04-01T00:33:44;9.77;;;4.07;;
20531;SDS011;10424;52.102;8.084;2023-04-01T00:36:12;10.30;;;4.10;;
20531;SDS011;10424;52.102;8.084;2023-04-01T00:38:39;6.15;;;3.97;;
20531;SDS011;10424;52.102;8.084;2023-04-01T00:41:08;6.40;;;2.78;;
20531;SDS011;10424;52.102;8.084;2023-04-01T00:43:39;6.22;;;3.75;;
20531;SDS011;10424;52.102;8.084;2023-04-01T00:46:08;5.13;;;3.20;;
20531;SDS011;10424;52.102;8.084;2023-04-01T00:48:36;5.22;;;3.45;;
20531;SDS011;10424;52.102;8.084;2023-04-01T00:51:06;7.00;;;3.72;;
20531;SDS011;10424;52.102;8.084;2023-04-01T00:53:34;7.45;;;2.95;;
20531;SDS011;10424;52.102;8.084;2023-04-01T00:56:04;6.05;;;3.60;;
20531;SDS011;10424;52.102;8.084;2023-04-01T00:58:33;7.70;;;3.70;;
20531;SDS011;10424;52.102;8.084;2023-04-01T01:01:02;6.43;;;3.83;;
20531;SDS011;10424;52.102;8.084;2023-04-01T01:03:30;6.88;;;3.90;;
20531;SDS011;10424;52.102;8.084;2023-04-01T01:06:03;9.98;;;3.53;;
20531;SDS011;10424;52.102;8.084;2023-04-01T01:08:36;7.75;;;3.22;;
20531;SDS011;10424;52.102;8.084;2023-04-01T01:11:07;4.82;;;3.08;;
20531;SDS011;10424;52.102;8.084;2023-04-01T01:13:38;3.78;;;2.88;;
20531;SDS011;10424;52.102;8.084;2023-04-01T01:16:09;6.35;;;3.33;;
20531;SDS011;10424;52.102;8.084;2023-04-01T01:18:40;7.55;;;2.90;;
20531;SDS011;10424;52.102;8.084;2023-04-01T01:21:15;8.65;;;3.00;;
20531;SDS011;10424;52.102;8.084;2023-04-01T01:23:57;7.40;;;3.08;;
20531;SDS011;10424;52.102;8.084;2023-04-01T01:26:36;8.00;;;3.10;;
20531;SDS011;10424;52.102;8.084;2023-04-01T01:29:08;8.57;;;3.15;;
20531;SDS011;10424;52.102;8.084;2023-04-01T01:31:43;4.53;;;2.85;;
20531;SDS011;10424;52.102;8.084;2023-04-01T01:34:14;6.43;;;2.83;;
20531;SDS011;10424;52.102;8.084;2023-04-01T01:36:43;5.80;;;2.88;;
20531;SDS011;10424;52.102;8.084;2023-04-01T01:39:12;5.03;;;2.65;;
20531;SDS011;10424;52.102;8.084;2023-04-01T01:41:41;5.82;;;2.83;;
20531;SDS011;10424;52.102;8.084;2023-04-01T01:44:10;6.00;;;2.55;;
20531;SDS011;10424;52.102;8.084;2023-04-01T01:46:39;6.68;;;2.70;;
20531;SDS011;10424;52.102;8.084;2023-04-01T01:49:08;5.32;;;2.80;;
20531;SDS011;10424;52.102;8.084;2023-04-01T01:51:37;5.63;;;2.50;;
20531;SDS011;10424;52.102;8.084;2023-04-01T01:54:06;5.72;;;2.83;;
20531;SDS011;10424;52.102;8.084;2023-04-01T01:56:33;7.10;;;2.70;;
20531;SDS011;10424;52.102;8.084;2023-04-01T01:59:02;3.50;;;2.70;;
20531;SDS011;10424;52.102;8.084;2023-04-01T02:01:31;4.97;;;2.60;;
20531;SDS011;10424;52.102;8.084;2023-04-01T02:03:59;6.30;;;3.10;;
20531;SDS011;10424;52.102;8.084;2023-04-01T02:06:28;4.78;;;2.60;;
20531;SDS011;10424;52.102;8.084;2023-04-01T02:08:56;5.22;;;3.20;;
20531;SDS011;10424;52.102;8.084;2023-04-01T02:11:26;3.47;;;2.55;;
20531;SDS011;10424;52.102;8.084;2023-04-01T02:13:54;4.65;;;2.70;;
20531;SDS011;10424;52.102;8.084;2023-04-01T02:16:23;4.20;;;2.30;;
20531;SDS011;10424;52.102;8.084;2023-04-01T02:18:52;7.35;;;3.53;;
20531;SDS011;10424;52.102;8.084;2023-04-01T02:21:20;6.82;;;3.33;;
20531;SDS011;10424;52.102;8.084;2023-04-01T02:23:49;4.13;;;2.13;;
20531;SDS011;10424;52.102;8.084;2023-04-01T02:26:17;5.05;;;2.65;;
20531;SDS011;10424;52.102;8.084;2023-04-01T02:28:45;5.95;;;2.78;;
20531;SDS011;10424;52.102;8.084;2023-04-01T02:31:13;4.68;;;2.90;;
20531;SDS011;10424;52.102;8.084;2023-04-01T02:33:41;5.93;;;3.03;;
20531;SDS011;10424;52.102;8.084;2023-04-01T02:36:10;4.55;;;2.80;;
20531;SDS011;10424;52.102;8.084;2023-04-01T02:38:39;6.10;;;3.10;;
20531;SDS011;10424;52.102;8.084;2023-04-01T02:41:07;5.18;;;3.22;;
20531;SDS011;10424;52.102;8.084;2023-04-01T02:43:34;5.53;;;2.90;;
20531;SDS011;10424;52.102;8.084;2023-04-01T02:46:03;4.22;;;2.70;;
20531;SDS011;10424;52.102;8.084;2023-04-01T02:48:30;4.72;;;2.38;;
20531;SDS011;10424;52.102;8.084;2023-04-01T02:50:58;5.70;;;3.00;;
20531;SDS011;10424;52.102;8.084;2023-04-01T02:53:25;5.80;;;2.90;;
20531;SDS011;10424;52.102;8.084;2023-04-01T02:55:52;4.13;;;2.70;;
20531;SDS011;10424;52.102;8.084;2023-04-01T02:58:20;3.28;;;2.25;;
20531;SDS011;10424;52.102;8.084;2023-04-01T03:00:47;3.67;;;2.65;;
20531;SDS011;10424;52.102;8.084;2023-04-01T03:03:16;3.08;;;2.20;;
20531;SDS011;10424;52.102;8.084;2023-04-01T03:05:43;5.75;;;2.40;;
20531;SDS011;10424;52.102;8.084;2023-04-01T03:08:10;3.13;;;2.20;;
20531;SDS011;10424;52.102;8.084;2023-04-01T03:10:37;3.70;;;2.47;;
20531;SDS011;10424;52.102;8.084;2023-04-01T03:13:05;4.38;;;2.40;;
20531;SDS011;10424;52.102;8.084;2023-04-01T03:15:32;5.18;;;2.78;;
20531;SDS011;10424;52.102;8.084;2023-04-01T03:17:59;5.00;;;2.65;;
20531;SDS011;10424;52.102;8.084;2023-04-01T03:20:29;5.53;;;2.67;;
20531;SDS011;10424;52.102;8.084;2023-04-01T03:22:56;4.05;;;2.90;;
20531;SDS011;10424;52.102;8.084;2023-04-01T03:25:24;4.90;;;2.90;;
20531;SDS011;10424;52.102;8.084;2023-04-01T03:27:52;3.17;;;2.75;;
20531;SDS011;10424;52.102;8.084;2023-04-01T03:30:19;5.63;;;3.50;;
20531;SDS011;10424;52.102;8.084;2023-04-01T03:32:46;4.72;;;3.13;;
20531;SDS011;10424;52.102;8.084;2023-04-01T03:35:14;3.70;;;2.17;;
20531;SDS011;10424;52.102;8.084;2023-04-01T03:37:42;3.30;;;2.53;;
20531;SDS011;10424;52.102;8.084;2023-04-01T03:40:10;3.97;;;2.08;;
20531;SDS011;10424;52.102;8.084;2023-04-01T03:42:37;4.20;;;2.45;;
20531;SDS011;10424;52.102;8.084;2023-04-01T03:45:05;3.15;;;2.30;;
20531;SDS011;10424;52.102;8.084;2023-04-01T03:47:33;3.00;;;1.88;;
20531;SDS011;10424;52.102;8.084;2023-04-01T03:50:00;3.40;;;2.28;;
20531;SDS011;10424;52.102;8.084;2023-04-01T03:52:27;4.13;;;2.03;;
20531;SDS011;10424;52.102;8.084;2023-04-01T03:54:56;4.47;;;2.85;;
20531;SDS011;10424;52.102;8.084;2023-04-01T03:57:23;6.35;;;2.67;;
20531;SDS011;10424;52.102;8.084;2023-04-01T03:59:51;7.55;;;3.33;;
20531;SDS011;10424;52.102;8.084;2023-04-01T04:02:18;7.38;;;3.40;;
20531;SDS011;10424;52.102;8.084;2023-04-01T04:04:45;5.90;;;2.80;;
20531;SDS011;10424;52.102;8.084;2023-04-01T04:07:13;7.22;;;3.15;;
20531;SDS011;10424;52.102;8.084;2023-04-01T04:09:40;8.40;;;3.40;;
20531;SDS011;10424;52.102;8.084;2023-04-01T04:12:09;7.95;;;3.17;;
20531;SDS011;10424;52.102;8.084;2023-04-01T04:14:36;8.13;;;3.30;;
20531;SDS011;10424;52.102;8.084;2023-04-01T04:17:03;9.15;;;3.00;;
20531;SDS011;10424;52.102;8.084;2023-04-01T04:19:31;7.88;;;2.85;;
20531;SDS011;10424;52.102;8.084;2023-04-01T04:21:59;8.20;;;2.72;;
20531;SDS011;10424;52.102;8.084;2023-04-01T04:24:27;7.78;;;2.80;;
20531;SDS011;10424;52.102;8.084;2023-04-01T04:26:54;6.53;;;2.53;;
20531;SDS011;10424;52.102;8.084;2023-04-01T04:29:23;6.47;;;2.30;;
20531;SDS011;10424;52.102;8.084;2023-04-01T04:31:50;7.05;;;3.05;;
20531;SDS011;10424;52.102;8.084;2023-04-01T04:34:17;6.85;;;2.50;;
20531;SDS011;10424;52.102;8.084;2023-04-01T04:36:45;5.22;;;2.60;;
20531;SDS011;10424;52.102;8.084;2023-04-01T04:39:12;5.20;;;2.65;;
20531;SDS011;10424;52.102;8.084;2023-04-01T04:41:40;7.00;;;2.70;;
20531;SDS011;10424;52.102;8.084;2023-04-01T04:46:38;5.82;;;2.70;;
20531;SDS011;10424;52.102;8.084;2023-04-01T04:49:06;6.05;;;3.00;;
20531;SDS011;10424;52.102;8.084;2023-04-01T04:51:33;4.00;;;2.45;;
20531;SDS011;10424;52.102;8.084;2023-04-01T04:54:01;5.53;;;2.53;;
20531;SDS011;10424;52.102;8.084;2023-04-01T04:56:28;5.88;;;2.78;;
20531;SDS011;10424;52.102;8.084;2023-04-01T04:58:55;3.90;;;2.70;;
20531;SDS011;10424;52.102;8.084;2023-04-01T05:01:23;4.05;;;2.75;;
20531;SDS011;10424;52.102;8.084;2023-04-01T05:03:52;6.13;;;3.10;;
20531;SDS011;10424;52.102;8.084;2023-04-01T05:06:19;6.05;;;2.90;;
20531;SDS011;10424;52.102;8.084;2023-04-01T05:08:47;3.63;;;2.80;;
20531;SDS011;10424;52.102;8.084;2023-04-01T05:11:15;4.40;;;2.90;;
20531;SDS011;10424;52.102;8.084;2023-04-01T05:13:42;4.53;;;2.70;;
20531;SDS011;10424;52.102;8.084;2023-04-01T05:16:10;6.22;;;2.65;;
20531;SDS011;10424;52.102;8.084;2023-04-01T05:18:38;3.75;;;2.63;;
20531;SDS011;10424;52.102;8.084;2023-04-01T05:21:08;3.55;;;2.80;;
20531;SDS011;10424;52.102;8.084;2023-04-01T05:23:35;3.70;;;2.70;;
20531;SDS011;10424;52.102;8.084;2023-04-01T05:26:03;3.20;;;2.42;;
20531;SDS011;10424;52.102;8.084;2023-04-01T05:28:30;2.70;;;2.10;;
20531;SDS011;10424;52.102;8.084;2023-04-01T05:30:58;2.92;;;2.38;;
20531;SDS011;10424;52.102;8.084;2023-04-01T05:33:25;3.63;;;2.40;;
20531;SDS011;10424;52.102;8.084;2023-04-01T05:35:53;3.08;;;2.30;;
20531;SDS011;10424;52.102;8.084;2023-04-01T05:38:21;3.00;;;2.38;;
20531;SDS011;10424;52.102;8.084;2023-04-01T05:40:49;2.80;;;2.00;;
20531;SDS011;10424;52.102;8.084;2023-04-01T05:43:16;3.78;;;2.40;;
20531;SDS011;10424;52.102;8.084;2023-04-01T05:45:43;3.28;;;2.20;;
20531;SDS011;10424;52.102;8.084;2023-04-01T05:48:10;4.88;;;1.90;;
20531;SDS011;10424;52.102;8.084;2023-04-01T05:50:39;2.28;;;2.00;;
20531;SDS011;10424;52.102;8.084;2023-04-01T05:53:07;2.92;;;2.20;;
20531;SDS011;10424;52.102;8.084;2023-04-01T05:55:35;3.88;;;2.28;;
20531;SDS011;10424;52.102;8.084;2023-04-01T05:58:03;4.05;;;2.22;;
20531;SDS011;10424;52.102;8.084;2023-04-01T06:00:30;3.33;;;2.30;;
20531;SDS011;10424;52.102;8.084;2023-04-01T06:02:58;3.00;;;2.00;;
20531;SDS011;10424;52.102;8.084;2023-04-01T06:05:27;3.17;;;2.20;;
20531;SDS011;10424;52.102;8.084;2023-04-01T06:07:55;4.43;;;2.30;;
20531;SDS011;10424;52.102;8.084;2023-04-01T06:10:26;3.30;;;1.90;;
20531;SDS011;10424;52.102;8.084;2023-04-01T06:13:02;4.70;;;2.40;;
20531;SDS011;10424;52.102;8.084;2023-04-01T06:15:35;3.33;;;2.50;;
20531;SDS011;10424;52.102;8.084;2023-04-01T06:20:47;5.07;;;2.60;;
20531;SDS011;10424;52.102;8.084;2023-04-01T06:23:24;3.38;;;2.50;;
20531;SDS011;10424;52.102;8.084;2023-04-01T06:25:59;3.58;;;2.40;;
20531;SDS011;10424;52.102;8.084;2023-04-01T06:28:35;3.35;;;2.75;;
20531;SDS011;10424;52.102;8.084;2023-04-01T06:31:07;3.35;;;2.45;;
20531;SDS011;10424;52.102;8.084;2023-04-01T06:33:37;4.95;;;3.20;;
20531;SDS011;10424;52.102;8.084;2023-04-01T06:36:12;4.55;;;2.83;;
20531;SDS011;10424;52.102;8.084;2023-04-01T06:38:45;5.38;;;3.25;;
20531;SDS011;10424;52.102;8.084;2023-04-01T06:41:24;4.90;;;3.28;;
20531;SDS011;10424;52.102;8.084;2023-04-01T06:43:57;5.88;;;3.90;;
20531;SDS011;10424;52.102;8.084;2023-04-01T06:46:29;10.15;;;6.05;;
20531;SDS011;10424;52.102;8.084;2023-04-01T06:49:04;14.38;;;9.10;;
20531;SDS011;10424;52.102;8.084;2023-04-01T06:51:36;15.32;;;9.68;;
20531;SDS011;10424;52.102;8.084;2023-04-01T06:54:06;15.45;;;9.27;;
20531;SDS011;10424;52.102;8.084;2023-04-01T06:56:36;12.45;;;8.27;;
20531;SDS011;10424;52.102;8.084;2023-04-01T06:59:08;10.30;;;6.47;;
20531;SDS011;10424;52.102;8.084;2023-04-01T07:01:38;6.38;;;4.75;;
20531;SDS011;10424;52.102;8.084;2023-04-01T07:04:09;6.90;;;4.22;;
20531;SDS011;10424;52.102;8.084;2023-04-01T07:06:39;6.25;;;3.97;;
20531;SDS011;10424;52.102;8.084;2023-04-01T07:09:10;7.00;;;4.28;;
20531;SDS011;10424;52.102;8.084;2023-04-01T07:11:38;7.57;;;4.22;;
20531;SDS011;10424;52.102;8.084;2023-04-01T07:14:10;6.60;;;3.70;;
20531;SDS011;10424;52.102;8.084;2023-04-01T07:16:40;6.40;;;4.18;;
20531;SDS011;10424;52.102;8.084;2023-04-01T07:19:08;6.57;;;3.80;;
20531;SDS011;10424;52.102;8.084;2023-04-01T07:21:39;5.80;;;3.90;;
20531;SDS011;10424;52.102;8.084;2023-04-01T07:24:10;5.00;;;3.50;;
20531;SDS011;10424;52.102;8.084;2023-04-01T07:26:39;5.95;;;3.28;;
20531;SDS011;10424;52.102;8.084;2023-04-01T07:29:10;5.70;;;3.78;;
20531;SDS011;10424;52.102;8.084;2023-04-01T07:31:42;4.57;;;3.35;;
20531;SDS011;10424;52.102;8.084;2023-04-01T07:34:14;6.78;;;4.03;;
20531;SDS011;10424;52.102;8.084;2023-04-01T07:36:44;5.97;;;4.10;;
20531;SDS011;10424;52.102;8.084;2023-04-01T07:39:17;6.03;;;4.25;;
20531;SDS011;10424;52.102;8.084;2023-04-01T07:41:50;6.18;;;4.03;;
20531;SDS011;10424;52.102;8.084;2023-04-01T07:44:23;6.03;;;4.45;;
20531;SDS011;10424;52.102;8.084;2023-04-01T07:47:01;6.55;;;4.80;;
20531;SDS011;10424;52.102;8.084;2023-04-01T07:49:35;7.28;;;5.22;;
20531;SDS011;10424;52.102;8.084;2023-04-01T07:52:09;6.90;;;4.82;;
20531;SDS011;10424;52.102;8.084;2023-04-01T07:54:41;7.97;;;5.13;;
20531;SDS011;10424;52.102;8.084;2023-04-01T07:57:12;7.53;;;5.40;;
20531;SDS011;10424;52.102;8.084;2023-04-01T07:59:45;7.97;;;5.47;;
20531;SDS011;10424;52.102;8.084;2023-04-01T08:02:21;7.68;;;5.30;;
20531;SDS011;10424;52.102;8.084;2023-04-01T08:04:55;8.38;;;5.60;;
20531;SDS011;10424;52.102;8.084;2023-04-01T08:07:25;8.25;;;5.20;;
20531;SDS011;10424;52.102;8.084;2023-04-01T08:09:59;6.80;;;4.68;;
20531;SDS011;10424;52.102;8.084;2023-04-01T08:12:31;6.22;;;4.63;;
20531;SDS011;10424;52.102;8.084;2023-04-01T08:15:11;6.93;;;5.43;;
20531;SDS011;10424;52.102;8.084;2023-04-01T08:17:41;8.23;;;5.22;;
20531;SDS011;10424;52.102;8.084;2023-04-01T08:20:14;9.43;;;4.90;;
20531;SDS011;10424;52.102;8.084;2023-04-01T08:22:45;7.38;;;5.28;;
20531;SDS011;10424;52.102;8.084;2023-04-01T08:25:15;7.15;;;5.03;;
20531;SDS011;10424;52.102;8.084;2023-04-01T08:27:44;16.65;;;9.30;;
20531;SDS011;10424;52.102;8.084;2023-04-01T08:30:16;7.70;;;5.25;;
20531;SDS011;10424;52.102;8.084;2023-04-01T08:32:45;20.45;;;11.18;;
20531;SDS011;10424;52.102;8.084;2023-04-01T08:35:16;7.35;;;5.25;;
20531;SDS011;10424;52.102;8.084;2023-04-01T08:37:45;6.25;;;5.07;;
20531;SDS011;10424;52.102;8.084;2023-04-01T08:43:02;8.93;;;5.75;;
20531;SDS011;10424;52.102;8.084;2023-04-01T08:45:45;7.22;;;5.20;;
20531;SDS011;10424;52.102;8.084;2023-04-01T08:53:58;5.93;;;4.47;;
20531;SDS011;10424;52.102;8.084;2023-04-01T08:56:32;6.13;;;4.65;;
20531;SDS011;10424;52.102;8.084;2023-04-01T08:59:09;5.00;;;4.30;;
20531;SDS011;10424;52.102;8.084;2023-04-01T09:01:50;6.72;;;4.70;;
20531;SDS011;10424;52.102;8.084;2023-04-01T09:04:23;6.38;;;4.68;;
20531;SDS011;10424;52.102;8.084;2023-04-01T09:06:55;5.35;;;4.38;;
20531;SDS011;10424;52.102;8.084;2023-04-01T09:12:30;6.88;;;4.60;;
20531;SDS011;10424;52.102;8.084;2023-04-01T09:15:13;6.72;;;4.63;;
20531;SDS011;10424;52.102;8.084;2023-04-01T09:17:48;5.57;;;4.38;;
20531;SDS011;10424;52.102;8.084;2023-04-01T09:20:27;5.22;;;4.30;;
20531;SDS011;10424;52.102;8.084;2023-04-01T09:23:04;5.65;;;4.45;;
20531;SDS011;10424;52.102;8.084;2023-04-01T09:25:45;4.90;;;4.20;;
20531;SDS011;10424;52.102;8.084;2023-04-01T09:28:16;5.93;;;4.03;;
20531;SDS011;10424;52.102;8.084;2023-04-01T09:31:01;5.68;;;4.18;;
20531;SDS011;10424;52.102;8.084;2023-04-01T09:33:42;4.90;;;4.00;;
20531;SDS011;10424;52.102;8.084;2023-04-01T09:36:12;4.78;;;3.58;;
20531;SDS011;10424;52.102;8.084;2023-04-01T09:38:48;6.82;;;4.05;;
20531;SDS011;10424;52.102;8.084;2023-04-01T09:41:20;5.18;;;4.13;;
20531;SDS011;10424;52.102;8.084;2023-04-01T09:43:58;7.18;;;4.20;;
20531;SDS011;10424;52.102;8.084;2023-04-01T09:46:31;5.72;;;4.15;;
20531;SDS011;10424;52.102;8.084;2023-04-01T09:49:08;5.43;;;4.35;;
20531;SDS011;10424;52.102;8.084;2023-04-01T09:51:39;5.85;;;4.35;;
20531;SDS011;10424;52.102;8.084;2023-04-01T09:54:19;4.80;;;3.60;;
20531;SDS011;10424;52.102;8.084;2023-04-01T09:59:57;4.38;;;3.60;;
20531;SDS011;10424;52.102;8.084;2023-04-01T10:02:44;6.22;;;4.00;;
20531;SDS011;10424;52.102;8.084;2023-04-01T10:10:59;4.47;;;3.95;;
20531;SDS011;10424;52.102;8.084;2023-04-01T10:13:47;5.05;;;4.50;;
20531;SDS011;10424;52.102;8.084;2023-04-01T10:16:31;5.38;;;3.63;;
20531;SDS011;10424;52.102;8.084;2023-04-01T10:19:13;8.13;;;5.85;;
20531;SDS011;10424;52.102;8.084;2023-04-01T10:21:50;3.83;;;3.42;;
20531;SDS011;10424;52.102;8.084;2023-04-01T10:24:38;4.70;;;3.80;;
20531;SDS011;10424;52.102;8.084;2023-04-01T10:27:22;5.32;;;4.22;;
20531;SDS011;10424;52.102;8.084;2023-04-01T10:30:01;4.63;;;4.00;;
20531;SDS011;10424;52.102;8.084;2023-04-01T10:32:38;9.60;;;6.50;;
20531;SDS011;10424;52.102;8.084;2023-04-01T10:35:34;10.82;;;6.93;;
20531;SDS011;10424;52.102;8.084;2023-04-01T10:38:14;5.75;;;4.07;;
20531;SDS011;10424;52.102;8.084;2023-04-01T10:40:52;4.55;;;3.97;;
20531;SDS011;10424;52.102;8.084;2023-04-01T10:46:26;5.63;;;3.63;;
20531;SDS011;10424;52.102;8.084;2023-04-01T10:52:04;5.95;;;3.55;;
20531;SDS011;10424;52.102;8.084;2023-04-01T10:54:43;5.05;;;3.63;;
20531;SDS011;10424;52.102;8.084;2023-04-01T10:57:18;4.70;;;4.00;;
20531;SDS011;10424;52.102;8.084;2023-04-01T11:00:02;5.80;;;4.47;;
20531;SDS011;10424;52.102;8.084;2023-04-01T11:05:29;8.80;;;6.70;;
20531;SDS011;10424;52.102;8.084;2023-04-01T11:10:57;5.75;;;4.43;;
20531;SDS011;10424;52.102;8.084;2023-04-01T11:13:47;11.93;;;8.77;;
20531;SDS011;10424;52.102;8.084;2023-04-01T11:16:43;6.32;;;4.57;;
20531;SDS011;10424;52.102;8.084;2023-04-01T11:19:29;5.03;;;3.60;;
20531;SDS011;10424;52.102;8.084;2023-04-01T11:24:56;6.35;;;5.05;;
20531;SDS011;10424;52.102;8.084;2023-04-01T11:27:36;5.97;;;4.93;;
20531;SDS011;10424;52.102;8.084;2023-04-01T11:30:20;7.00;;;5.15;;
20531;SDS011;10424;52.102;8.084;2023-04-01T11:32:51;6.72;;;5.00;;
20531;SDS011;10424;52.102;8.084;2023-04-01T11:35:24;6.50;;;4.97;;
20531;SDS011;10424;52.102;8.084;2023-04-01T11:37:54;10.63;;;7.20;;
20531;SDS011;10424;52.102;8.084;2023-04-01T11:40:28;6.63;;;5.22;;
20531;SDS011;10424;52.102;8.084;2023-04-01T11:43:00;6.63;;;5.47;;
20531;SDS011;10424;52.102;8.084;2023-04-01T11:45:32;3.80;;;3.22;;
20531;SDS011;10424;52.102;8.084;2023-04-01T11:48:17;4.15;;;3.75;;
20531;SDS011;10424;52.102;8.084;2023-04-01T11:50:51;5.00;;;4.20;;
20531;SDS011;10424;52.102;8.084;2023-04-01T11:53:27;5.22;;;3.60;;
20531;SDS011;10424;52.102;8.084;2023-04-01T11:56:06;5.72;;;3.70;;
20531;SDS011;10424;52.102;8.084;2023-04-01T12:01:23;5.32;;;4.35;;
20531;SDS011;10424;52.102;8.084;2023-04-01T12:06:38;4.80;;;3.60;;
20531;SDS011;10424;52.102;8.084;2023-04-01T12:09:10;4.00;;;3.20;;
20531;SDS011;10424;52.102;8.084;2023-04-01T12:11:44;3.50;;;2.92;;
20531;SDS011;10424;52.102;8.084;2023-04-01T12:14:16;4.45;;;3.45;;
20531;SDS011;10424;52.102;8.084;2023-04-01T12:16:47;3.85;;;3.22;;
20531;SDS011;10424;52.102;8.084;2023-04-01T12:19:18;5.07;;;3.95;;
20531;SDS011;10424;52.102;8.084;2023-04-01T12:21:50;3.60;;;2.65;;
20531;SDS011;10424;52.102;8.084;2023-04-01T12:24:29;2.95;;;2.50;;
20531;SDS011;10424;52.102;8.084;2023-04-01T12:27:18;2.60;;;2.40;;
20531;SDS011;10424;52.102;8.084;2023-04-01T12:29:54;2.35;;;2.15;;
20531;SDS011;10424;52.102;8.084;2023-04-01T12:32:31;2.78;;;2.58;;
20531;SDS011;10424;52.102;8.084;2023-04-01T12:35:10;1.80;;;1.70;;
20531;SDS011;10424;52.102;8.084;2023-04-01T12:37:41;2.00;;;1.80;;
20531;SDS011;10424;52.102;8.084;2023-04-01T12:40:20;2.03;;;1.92;;
20531;SDS011;10424;52.102;8.084;2023-04-01T12:42:55;2.47;;;2.28;;
20531;SDS011;10424;52.102;8.084;2023-04-01T12:45:30;4.40;;;4.00;;
20531;SDS011;10424;52.102;8.084;2023-04-01T12:48:04;3.92;;;2.70;;
20531;SDS011;10424;52.102;8.084;2023-04-01T12:50:35;1.70;;;1.60;;
20531;SDS011;10424;52.102;8.084;2023-04-01T12:53:09;1.80;;;1.70;;
20531;SDS011;10424;52.102;8.084;2023-04-01T12:55:40;2.10;;;1.90;;
20531;SDS011;10424;52.102;8.084;2023-04-01T13:01:07;2.40;;;2.20;;
20531;SDS011;10424;52.102;8.084;2023-04-01T13:06:29;3.00;;;2.70;;
20531;SDS011;10424;52.102;8.084;2023-04-01T13:09:02;4.07;;;2.78;;
20531;SDS011;10424;52.102;8.084;2023-04-01T13:11:43;3.28;;;2.60;;
20531;SDS011;10424;52.102;8.084;2023-04-01T13:14:33;2.17;;;1.98;;
20531;SDS011;10424;52.102;8.084;2023-04-01T13:17:07;2.60;;;2.40;;
20531;SDS011;10424;52.102;8.084;2023-04-01T13:19:39;3.00;;;2.70;;
20531;SDS011;10424;52.102;8.084;2023-04-01T13:22:10;3.05;;;2.75;;
20531;SDS011;10424;52.102;8.084;2023-04-01T13:24:44;3.38;;;2.90;;
20531;SDS011;10424;52.102;8.084;2023-04-01T13:27:16;3.17;;;2.72;;
20531;SDS011;10424;52.102;8.084;2023-04-01T13:29:57;2.80;;;2.50;;
20531;SDS011;10424;52.102;8.084;2023-04-01T13:32:31;2.67;;;2.47;;
20531;SDS011;10424;52.102;8.084;2023-04-01T13:35:08;3.10;;;2.80;;
20531;SDS011;10424;52.102;8.084;2023-04-01T13:37:47;4.30;;;2.90;;
20531;SDS011;10424;52.102;8.084;2023-04-01T13:40:23;3.80;;;3.40;;
20531;SDS011;10424;52.102;8.084;2023-04-01T13:42:53;5.20;;;3.20;;
20531;SDS011;10424;52.102;8.084;2023-04-01T13:45:24;4.60;;;3.97;;
20531;SDS011;10424;52.102;8.084;2023-04-01T13:48:11;4.97;;;3.95;;
20531;SDS011;10424;52.102;8.084;2023-04-01T13:50:45;5.43;;;4.30;;
20531;SDS011;10424;52.102;8.084;2023-04-01T13:56:15;5.85;;;4.57;;
20531;SDS011;10424;52.102;8.084;2023-04-01T13:58:46;4.90;;;3.70;;
20531;SDS011;10424;52.102;8.084;2023-04-01T14:01:17;4.13;;;3.38;;
20531;SDS011;10424;52.102;8.084;2023-04-01T14:03:55;4.43;;;3.67;;
20531;SDS011;10424;52.102;8.084;2023-04-01T14:06:34;5.57;;;4.07;;
20531;SDS011;10424;52.102;8.084;2023-04-01T14:11:55;7.32;;;4.75;;
20531;SDS011;10424;52.102;8.084;2023-04-01T14:14:29;5.70;;;4.43;;
20531;SDS011;10424;52.102;8.084;2023-04-01T14:22:46;9.48;;;7.30;;
20531;SDS011;10424;52.102;8.084;2023-04-01T14:25:29;5.05;;;4.55;;
20531;SDS011;10424;52.102;8.084;2023-04-01T14:28:00;3.80;;;3.40;;
20531;SDS011;10424;52.102;8.084;2023-04-01T14:30:37;3.80;;;3.20;;
20531;SDS011;10424;52.102;8.084;2023-04-01T14:33:12;3.92;;;3.13;;
20531;SDS011;10424;52.102;8.084;2023-04-01T14:35:45;4.60;;;3.72;;
20531;SDS011;10424;52.102;8.084;2023-04-01T14:38:24;6.68;;;4.07;;
20531;SDS011;10424;52.102;8.084;2023-04-01T14:40:56;4.10;;;3.40;;
20531;SDS011;10424;52.102;8.084;2023-04-01T14:43:28;3.45;;;3.10;;
20531;SDS011;10424;52.102;8.084;2023-04-01T14:46:04;2.60;;;2.20;;
20531;SDS011;10424;52.102;8.084;2023-04-01T14:48:34;2.90;;;1.80;;
20531;SDS011;10424;52.102;8.084;2023-04-01T14:51:03;2.28;;;2.08;;
20531;SDS011;10424;52.102;8.084;2023-04-01T14:53:33;2.55;;;2.35;;
20531;SDS011;10424;52.102;8.084;2023-04-01T14:56:03;2.20;;;2.00;;
20531;SDS011;10424;52.102;8.084;2023-04-01T14:58:39;3.70;;;2.80;;
20531;SDS011;10424;52.102;8.084;2023-04-01T15:01:11;4.00;;;2.80;;
20531;SDS011;10424;52.102;8.084;2023-04-01T15:03:45;5.47;;;4.50;;
20531;SDS011;10424;52.102;8.084;2023-04-01T15:06:28;5.05;;;4.18;;
20531;SDS011;10424;52.102;8.084;2023-04-01T15:09:00;5.82;;;4.43;;
20531;SDS011;10424;52.102;8.084;2023-04-01T15:11:33;5.65;;;4.20;;
20531;SDS011;10424;52.102;8.084;2023-04-01T15:14:09;7.85;;;4.45;;
20531;SDS011;10424;52.102;8.084;2023-04-01T15:16:41;5.88;;;4.35;;
20531;SDS011;10424;52.102;8.084;2023-04-01T15:19:15;7.47;;;4.82;;
20531;SDS011;10424;52.102;8.084;2023-04-01T15:21:48;6.70;;;3.75;;
20531;SDS011;10424;52.102;8.084;2023-04-01T15:24:21;4.18;;;3.25;;
20531;SDS011;10424;52.102;8.084;2023-04-01T15:26:56;3.13;;;2.45;;
20531;SDS011;10424;52.102;8.084;2023-04-01T15:32:27;2.42;;;2.00;;
20531;SDS011;10424;52.102;8.084;2023-04-01T15:34:57;2.65;;;2.10;;
20531;SDS011;10424;52.102;8.084;2023-04-01T15:37:29;3.03;;;2.00;;
20531;SDS011;10424;52.102;8.084;2023-04-01T15:40:01;4.65;;;2.65;;
20531;SDS011;10424;52.102;8.084;2023-04-01T15:42:33;7.38;;;4.57;;
20531;SDS011;10424;52.102;8.084;2023-04-01T15:45:04;6.82;;;3.53;;
20531;SDS011;10424;52.102;8.084;2023-04-01T15:47:39;15.18;;;8.93;;
20531;SDS011;10424;52.102;8.084;2023-04-01T15:50:23;12.48;;;8.38;;
20531;SDS011;10424;52.102;8.084;2023-04-01T15:52:56;9.75;;;6.95;;
20531;SDS011;10424;52.102;8.084;2023-04-01T15:55:26;3.15;;;2.55;;
20531;SDS011;10424;52.102;8.084;2023-04-01T15:58:01;3.42;;;2.80;;
20531;SDS011;10424;52.102;8.084;2023-04-01T16:00:33;3.08;;;1.50;;
20531;SDS011;10424;52.102;8.084;2023-04-01T16:03:24;1.70;;;1.60;;
20531;SDS011;10424;52.102;8.084;2023-04-01T16:06:10;2.13;;;1.50;;
20531;SDS011;10424;52.102;8.084;2023-04-01T16:11:24;1.50;;;1.40;;
20531;SDS011;10424;52.102;8.084;2023-04-01T16:13:59;2.90;;;2.30;;
20531;SDS011;10424;52.102;8.084;2023-04-01T16:16:31;3.22;;;1.33;;
20531;SDS011;10424;52.102;8.084;2023-04-01T16:19:10;3.22;;;2.55;;
20531;SDS011;10424;52.102;8.084;2023-04-01T16:21:42;2.33;;;2.00;;
20531;SDS011;10424;52.102;8.084;2023-04-01T16:24:14;2.10;;;1.90;;
20531;SDS011;10424;52.102;8.084;2023-04-01T16:26:45;2.50;;;1.75;;